Time;durP1;ratioP1;P1;durP2;ratioP2;P2;SDS_P1;SDS_P2;PMS_P1;PMS_P2;Temp;Humidity;BMP_temperature;BMP_pressure;BME280_temperature;BME280_humidity;BME280_pressure;Samples;Min_cycle;Max_cycle;Signal;HPM_P1;HPM_P2
2021/10/17 00:02:02;;;;;;;6.53;4.28;;;;;;;12.64;82.17;100219.09;5091028;28;20027;-19
2021/10/17 00:04:28;;;;;;;7.35;4.85;;;;;;;12.88;81.19;100224.50;5090841;28;20035;-19
2021/10/17 00:06:53;;;;;;;10.07;4.90;;;;;;;12.92;80.27;100214.97;5090705;28;20028;-19
2021/10/17 00:09:19;;;;;;;6.55;4.53;;;;;;;12.97;80.86;100225.78;5072606;28;20496;-19
2021/10/17 00:11:44;;;;;;;7.65;5.03;;;;;;;12.85;80.96;100221.25;5091053;28;20024;-19
2021/10/17 00:14:10;;;;;;;7.78;4.63;;;;;;;12.88;81.75;100237.91;5055983;28;20028;-19
2021/10/17 00:16:36;;;;;;;7.78;4.75;;;;;;;12.81;81.96;100220.06;5090471;28;20032;-19
2021/10/17 00:19:01;;;;;;;7.78;5.15;;;;;;;12.80;81.69;100218.44;5090372;28;20042;-20
2021/10/17 00:21:27;;;;;;;6.95;4.55;;;;;;;12.81;81.51;100219.25;5072475;28;20020;-20
2021/10/17 00:23:52;;;;;;;8.43;5.60;;;;;;;12.82;81.45;100229.72;5090713;28;20472;-19
2021/10/17 00:26:18;;;;;;;9.27;5.10;;;;;;;12.89;81.58;100226.13;5090360;28;20035;-20
2021/10/17 00:28:43;;;;;;;7.10;4.55;;;;;;;12.82;81.17;100211.00;5090426;28;20089;-19
2021/10/17 00:31:09;;;;;;;6.63;4.78;;;;;;;12.88;82.07;100230.66;5071984;28;20411;-19
2021/10/17 00:33:34;;;;;;;7.03;4.70;;;;;;;13.10;80.52;100222.91;5055510;28;20487;-19
2021/10/17 00:36:00;;;;;;;7.97;4.97;;;;;;;13.09;81.37;100231.16;5090624;28;20024;-19
2021/10/17 00:38:25;;;;;;;8.10;5.03;;;;;;;12.88;82.34;100224.50;5090230;28;20502;-19
2021/10/17 00:40:52;;;;;;;7.22;4.90;;;;;;;12.81;82.72;100227.28;5089932;28;20054;-19
2021/10/17 00:43:17;;;;;;;8.57;5.45;;;;;;;12.64;83.30;100235.16;5072009;28;20038;-19
2021/10/17 00:45:43;;;;;;;6.80;4.88;;;;;;;12.61;83.51;100224.91;5090161;28;20024;-19
2021/10/17 00:48:08;;;;;;;7.30;4.90;;;;;;;12.75;83.17;100231.69;5089989;28;20441;-19
2021/10/17 00:50:34;;;;;;;7.93;4.90;;;;;;;13.04;82.06;100232.69;5089917;28;20028;-19
2021/10/17 00:52:59;;;;;;;8.77;4.85;;;;;;;12.92;82.36;100220.34;5071138;28;20447;-19
2021/10/17 00:55:28;;;;;;;7.07;5.10;;;;;;;12.79;83.20;100224.00;5071722;28;20036;-19
2021/10/17 00:57:54;;;;;;;9.38;4.72;;;;;;;12.93;82.48;100221.94;5089263;28;20042;-19
2021/10/17 01:00:19;;;;;;;7.93;4.93;;;;;;;13.10;81.75;100227.44;5071928;28;20027;-19
2021/10/17 01:02:45;;;;;;;6.65;4.93;;;;;;;12.95;82.18;100235.91;5090219;28;20372;-19
2021/10/17 01:05:16;;;;;;;8.95;5.35;;;;;;;12.99;81.95;100224.50;5089959;28;20039;-19
2021/10/17 01:07:43;;;;;;;9.05;4.75;;;;;;;12.66;82.99;100222.34;5089600;28;20093;-20
2021/10/17 01:10:08;;;;;;;7.68;5.60;;;;;;;12.79;82.22;100238.22;5089743;28;20028;-19
2021/10/17 01:12:34;;;;;;;6.57;4.88;;;;;;;12.78;83.01;100235.78;5055059;28;20035;-19
2021/10/17 01:14:59;;;;;;;12.55;6.05;;;;;;;13.09;81.18;100226.63;5089500;28;20098;-19
2021/10/17 01:17:25;;;;;;;7.38;4.72;;;;;;;12.95;81.33;100225.22;5089705;28;20047;-19
2021/10/17 01:19:50;;;;;;;8.13;4.57;;;;;;;12.97;81.27;100236.50;5089717;28;20028;-19
2021/10/17 01:22:19;;;;;;;6.20;4.30;;;;;;;12.94;81.55;100234.28;5089376;28;20028;-19
2021/10/17 01:24:45;;;;;;;6.75;3.92;;;;;;;12.75;81.32;100226.34;5071389;28;20477;-19
2021/10/17 01:27:10;;;;;;;5.55;4.13;;;;;;;12.66;82.59;100231.19;5089607;28;20032;-19
2021/10/17 01:29:36;;;;;;;6.50;3.83;;;;;;;12.63;82.19;100225.50;5089797;28;20028;-20
2021/10/17 01:32:02;;;;;;;9.13;3.88;;;;;;;12.56;83.00;100224.75;5089213;28;20085;-20
2021/10/17 01:34:27;;;;;;;5.68;3.50;;;;;;;12.55;83.04;100223.16;5071609;28;20173;-20
2021/10/17 01:36:53;;;;;;;7.82;4.30;;;;;;;12.69;82.71;100235.28;5089285;28;20514;-19
2021/10/17 01:39:19;;;;;;;7.25;4.13;;;;;;;12.91;81.71;100234.75;5089590;28;20042;-20
2021/10/17 01:41:45;;;;;;;8.80;4.53;;;;;;;12.84;81.36;100222.28;5088891;28;20419;-19
2021/10/17 01:44:15;;;;;;;7.25;4.32;;;;;;;12.79;81.49;100215.97;5071191;28;20052;-20
2021/10/17 01:46:41;;;;;;;6.63;4.18;;;;;;;12.65;82.69;100236.78;5089061;28;20557;-19
2021/10/17 01:49:06;;;;;;;7.07;4.07;;;;;;;12.59;82.86;100232.34;5070836;28;20028;-19
2021/10/17 01:51:32;;;;;;;6.55;4.20;;;;;;;12.57;82.89;100234.44;5054006;28;20054;-19
2021/10/17 01:53:58;;;;;;;8.93;4.75;;;;;;;12.58;82.37;100233.38;5070856;28;20044;-19
2021/10/17 01:56:23;;;;;;;6.57;4.20;;;;;;;12.79;81.99;100250.78;5089108;28;20024;-19
2021/10/17 01:58:49;;;;;;;6.43;4.40;;;;;;;12.82;82.17;100243.09;5088945;28;20484;-19
2021/10/17 02:01:14;;;;;;;10.02;4.63;;;;;;;12.59;83.01;100243.06;5070693;28;20032;-19
2021/10/17 02:03:40;;;;;;;7.22;4.53;;;;;;;12.51;83.69;100230.00;5089202;28;20081;-19
2021/10/17 02:06:05;;;;;;;7.15;4.00;;;;;;;12.57;83.34;100243.28;5089195;28;20514;-19
2021/10/17 02:08:31;;;;;;;7.70;4.40;;;;;;;12.65;82.94;100242.94;5090995;28;20085;-19
2021/10/17 02:10:57;;;;;;;8.93;4.13;;;;;;;12.52;82.95;100245.81;5092830;28;20032;-20
2021/10/17 02:13:22;;;;;;;6.40;4.10;;;;;;;12.49;83.74;100237.44;5093002;28;20031;-19
2021/10/17 02:15:48;;;;;;;7.53;4.38;;;;;;;12.33;83.36;100226.31;5093162;28;20032;-19
2021/10/17 02:18:13;;;;;;;8.77;5.00;;;;;;;12.53;83.39;100249.31;5092971;28;20111;-20
2021/10/17 02:20:39;;;;;;;6.63;4.50;;;;;;;12.54;82.46;100253.59;5074868;28;20143;-20
2021/10/17 02:23:04;;;;;;;9.10;4.80;;;;;;;12.60;81.76;100237.44;5092503;28;20230;-19
2021/10/17 02:25:34;;;;;;;8.93;4.65;;;;;;;12.69;81.83;100240.66;5092844;28;20483;-19
2021/10/17 02:28:00;;;;;;;6.05;4.20;;;;;;;12.50;81.91;100253.25;5093113;28;20032;-19
2021/10/17 02:30:25;;;;;;;6.43;3.70;;;;;;;12.48;82.12;100246.50;5074527;28;20043;-19
2021/10/17 02:32:51;;;;;;;7.20;3.55;;;;;;;12.65;80.91;100259.00;5092596;28;20035;-19
2021/10/17 02:35:16;;;;;;;6.72;4.15;;;;;;;12.73;79.98;100263.22;5092190;28;20031;-19
2021/10/17 02:37:42;;;;;;;6.78;4.10;;;;;;;12.68;80.63;100252.38;5092578;28;20134;-19
2021/10/17 02:40:08;;;;;;;6.32;4.03;;;;;;;12.56;81.08;100260.34;5092487;28;20157;-20
2021/10/17 02:42:34;;;;;;;6.45;4.28;;;;;;;12.45;81.91;100267.31;5092440;28;20111;-19
2021/10/17 02:44:59;;;;;;;6.15;4.47;;;;;;;12.32;81.95;100237.22;5092093;28;20024;-19
2021/10/17 02:47:25;;;;;;;6.28;4.00;;;;;;;12.44;81.78;100263.00;5092401;28;20558;-19
2021/10/17 02:49:51;;;;;;;5.75;3.90;;;;;;;12.46;82.28;100258.25;5092233;28;20036;-19
2021/10/17 02:52:16;;;;;;;6.63;4.20;;;;;;;12.32;82.38;100258.63;5073979;28;20085;-19
2021/10/17 02:54:42;;;;;;;8.15;4.43;;;;;;;12.42;82.05;100253.56;5091846;28;20055;-19
2021/10/17 02:57:08;;;;;;;5.35;3.63;;;;;;;12.37;81.55;100245.41;5091928;28;20039;-19
2021/10/17 02:59:33;;;;;;;6.32;3.60;;;;;;;12.44;81.75;100263.00;5073839;28;20089;-20
2021/10/17 03:01:59;;;;;;;8.32;4.40;;;;;;;12.61;81.53;100254.34;5092535;28;20475;-20
2021/10/17 03:04:24;;;;;;;5.80;3.90;;;;;;;12.58;80.73;100252.09;5092269;28;20036;-19
2021/10/17 03:06:50;;;;;;;5.95;3.78;;;;;;;12.56;81.45;100246.16;5073573;28;20024;-19
2021/10/17 03:09:15;;;;;;;6.10;3.58;;;;;;;12.61;81.35;100240.97;5092024;28;20044;-19
2021/10/17 03:11:41;;;;;;;6.05;3.95;;;;;;;12.80;80.74;100260.44;5091806;28;20517;-19
2021/10/17 03:14:06;;;;;;;7.25;4.15;;;;;;;12.74;80.31;100258.69;5073679;28;20032;-19
2021/10/17 03:16:32;;;;;;;6.82;4.22;;;;;;;12.64;80.22;100241.31;5091783;28;20552;-19
2021/10/17 03:18:57;;;;;;;7.10;4.18;;;;;;;12.86;80.24;100264.88;5091227;28;20032;-19
2021/10/17 03:21:23;;;;;;;5.50;3.80;;;;;;;12.75;80.21;100263.81;5091440;28;20059;-19
2021/10/17 03:23:48;;;;;;;6.43;3.70;;;;;;;12.81;80.51;100278.97;5056997;28;20423;-20
2021/10/17 03:26:14;;;;;;;5.53;3.58;;;;;;;12.60;81.78;100280.25;5091538;28;20028;-19
2021/10/17 03:28:39;;;;;;;8.82;4.20;;;;;;;12.58;81.85;100278.88;5091348;28;20510;-19
2021/10/17 03:31:07;;;;;;;6.15;3.78;;;;;;;12.50;81.36;100268.47;5091243;28;20093;-19
2021/10/17 03:33:33;;;;;;;6.47;3.27;;;;;;;12.62;81.05;100272.00;5091447;28;20028;-19
2021/10/17 03:35:58;;;;;;;6.75;3.60;;;;;;;12.53;82.01;100279.56;5090085;28;20274;-20
2021/10/17 03:38:24;;;;;;;6.03;3.45;;;;;;;12.73;80.49;100276.59;5091628;28;20495;-20
2021/10/17 03:40:49;;;;;;;9.95;3.50;;;;;;;12.84;80.19;100289.19;5073487;28;20046;-19
2021/10/17 03:43:15;;;;;;;6.53;3.55;;;;;;;12.75;79.42;100266.50;5091657;28;20035;-19
2021/10/17 03:45:40;;;;;;;6.60;3.63;;;;;;;12.90;79.78;100286.66;5091522;28;20503;-19
2021/10/17 03:48:07;;;;;;;5.32;3.65;;;;;;;12.73;80.53;100281.97;5091174;28;20055;-19
2021/10/17 03:50:32;;;;;;;5.93;3.92;;;;;;;12.64;81.37;100281.44;5090954;28;20698;-19
2021/10/17 03:52:58;;;;;;;5.88;3.40;;;;;;;12.81;81.17;100297.69;5072683;28;20068;-19
2021/10/17 03:55:23;;;;;;;6.93;3.90;;;;;;;12.66;79.85;100278.53;5091115;28;20027;-19
2021/10/17 03:57:49;;;;;;;5.75;3.30;;;;;;;12.79;79.21;100286.41;5073006;28;20522;-19
2021/10/17 04:00:14;;;;;;;6.35;3.78;;;;;;;12.63;79.38;100271.00;5091055;28;20028;-19
2021/10/17 04:02:40;;;;;;;5.30;3.45;;;;;;;12.69;79.82;100296.00;5090942;28;20024;-19
2021/10/17 04:05:06;;;;;;;5.82;3.05;;;;;;;12.66;80.52;100302.63;5072600;28;20104;-19
2021/10/17 04:07:31;;;;;;;6.40;3.70;;;;;;;12.63;81.08;100303.91;5091233;28;20028;-19
2021/10/17 04:09:57;;;;;;;5.53;3.58;;;;;;;12.47;81.57;100309.88;5090856;28;20028;-19
2021/10/17 04:12:22;;;;;;;5.88;3.60;;;;;;;12.54;81.10;100296.41;5090798;28;20031;-19
2021/10/17 04:14:48;;;;;;;5.57;3.28;;;;;;;12.56;81.05;100307.69;5090722;28;20047;-19
2021/10/17 04:17:13;;;;;;;5.35;3.47;;;;;;;12.53;82.05;100313.50;5090694;28;20458;-21
2021/10/17 04:19:39;;;;;;;8.90;4.10;;;;;;;12.52;81.81;100319.91;5090677;28;20376;-20
2021/10/17 04:22:04;;;;;;;6.22;3.45;;;;;;;12.55;81.51;100316.78;5055777;28;20027;-20
2021/10/17 04:24:30;;;;;;;6.43;3.80;;;;;;;12.64;81.60;100320.75;5090772;28;20051;-19
2021/10/17 04:26:55;;;;;;;6.50;3.53;;;;;;;12.90;79.96;100319.59;5090239;28;20065;-19
2021/10/17 04:29:21;;;;;;;8.27;4.15;;;;;;;12.78;80.49;100322.22;5072334;28;20032;-19
2021/10/17 04:31:46;;;;;;;5.97;3.78;;;;;;;12.85;80.02;100333.66;5089191;28;20032;-19
2021/10/17 04:34:12;;;;;;;7.68;3.70;;;;;;;12.91;79.87;100336.47;5090489;28;20403;-19
2021/10/17 04:36:37;;;;;;;6.07;3.70;;;;;;;12.75;80.84;100325.38;5090310;28;20036;-19
2021/10/17 04:39:06;;;;;;;5.95;3.63;;;;;;;12.90;80.30;100326.81;5089949;28;20411;-19
2021/10/17 04:41:32;;;;;;;7.22;3.90;;;;;;;13.00;79.48;100329.75;5072219;28;20028;-20
2021/10/17 04:43:58;;;;;;;6.13;3.63;;;;;;;12.95;78.89;100340.31;5055472;28;20020;-20
2021/10/17 04:46:23;;;;;;;7.15;3.85;;;;;;;12.74;80.14;100339.78;5089964;28;20035;-19
2021/10/17 04:48:49;;;;;;;6.18;3.95;;;;;;;12.82;78.88;100352.84;5071661;28;20089;-19
2021/10/17 04:51:14;;;;;;;6.65;4.10;;;;;;;12.89;79.46;100342.03;5089934;28;20036;-19
2021/10/17 04:53:40;;;;;;;6.00;3.70;;;;;;;12.67;80.57;100336.38;5089819;28;20056;-19
2021/10/17 04:56:05;;;;;;;5.68;3.75;;;;;;;12.94;79.23;100352.06;5072067;28;20071;-19
2021/10/17 04:58:31;;;;;;;5.88;3.70;;;;;;;12.86;80.50;100355.88;5090411;28;20036;-19
2021/10/17 05:00:56;;;;;;;7.78;4.32;;;;;;;13.02;79.09;100357.91;5089908;28;20867;-19
2021/10/17 05:03:23;;;;;;;7.40;3.88;;;;;;;12.93;80.11;100359.28;5089707;28;20028;-19
2021/10/17 05:05:49;;;;;;;16.52;6.80;;;;;;;12.80;80.80;100362.13;5072003;28;20518;-19
2021/10/17 05:08:15;;;;;;;29.23;11.38;;;;;;;12.72;81.29;100363.25;5089666;28;20024;-19
2021/10/17 05:10:40;;;;;;;29.20;10.18;;;;;;;12.72;81.92;100370.47;5089689;28;20024;-19
2021/10/17 05:13:06;;;;;;;30.42;11.30;;;;;;;12.79;81.75;100374.72;5089253;28;20031;-19
2021/10/17 05:15:32;;;;;;;24.15;10.30;;;;;;;12.75;82.06;100376.22;5089691;28;20032;-20
2021/10/17 05:17:57;;;;;;;16.67;8.80;;;;;;;12.91;81.51;100372.06;5071220;28;20039;-20
2021/10/17 05:20:23;;;;;;;18.90;8.02;;;;;;;13.14;80.93;100378.56;5089392;28;20113;-19
2021/10/17 05:22:48;;;;;;;15.68;7.93;;;;;;;12.99;81.10;100371.75;5089309;28;20031;-19
2021/10/17 05:25:14;;;;;;;12.88;7.53;;;;;;;13.22;80.34;100384.41;5089339;28;20020;-19
2021/10/17 05:27:40;;;;;;;10.63;7.22;;;;;;;13.02;80.94;100386.56;5089562;28;20035;-19
2021/10/17 05:30:06;;;;;;;11.95;7.57;;;;;;;13.12;81.21;100394.88;5089261;28;20403;-19
2021/10/17 05:32:31;;;;;;;9.45;6.70;;;;;;;13.03;81.86;100393.53;5071073;28;20111;-20
2021/10/17 05:34:57;;;;;;;12.73;7.20;;;;;;;13.24;81.16;100390.38;5089150;28;20554;-20
2021/10/17 05:37:22;;;;;;;12.02;7.65;;;;;;;13.08;81.69;100391.00;5089338;28;20043;-20
2021/10/17 05:39:48;;;;;;;14.82;9.57;;;;;;;13.09;81.83;100403.34;5089648;28;20028;-19
2021/10/17 05:42:13;;;;;;;15.95;11.27;;;;;;;13.34;80.41;100411.28;5071138;28;20458;-19
2021/10/17 05:44:39;;;;;;;15.25;11.13;;;;;;;13.66;79.25;100417.16;5071055;28;20055;-19
2021/10/17 05:47:04;;;;;;;22.55;14.50;;;;;;;13.43;80.33;100419.78;5088769;28;20034;-19
2021/10/17 05:49:29;;;;;;;19.63;12.68;;;;;;;13.61;78.99;100424.28;5089131;28;20024;-19
2021/10/17 05:51:55;;;;;;;13.98;9.52;;;;;;;13.60;78.69;100419.94;5089322;28;20028;-19
2021/10/17 05:54:20;;;;;;;11.43;7.90;;;;;;;13.52;78.53;100418.41;5070618;28;20427;-20
2021/10/17 05:56:47;;;;;;;12.10;8.10;;;;;;;13.77;77.65;100420.06;5088478;28;20574;-19
2021/10/17 05:59:13;;;;;;;12.10;7.88;;;;;;;13.57;78.92;100436.50;5088825;28;20075;-20
2021/10/17 06:01:38;;;;;;;10.43;7.75;;;;;;;13.52;79.11;100434.47;5071095;28;20032;-19
2021/10/17 06:04:04;;;;;;;10.82;7.15;;;;;;;13.60;78.15;100427.97;5089005;28;20043;-20
2021/10/17 06:06:29;;;;;;;9.15;6.30;;;;;;;13.52;78.27;100428.31;5070981;28;20411;-19
2021/10/17 06:08:57;;;;;;;9.52;6.50;;;;;;;13.49;79.09;100439.50;5088520;28;20030;-20
2021/10/17 06:11:22;;;;;;;10.00;6.70;;;;;;;13.53;78.80;100446.84;5089095;28;20050;-19
2021/10/17 06:13:48;;;;;;;8.55;6.20;;;;;;;13.50;78.88;100446.47;5089073;28;20480;-19
2021/10/17 06:16:13;;;;;;;17.48;11.05;;;;;;;13.46;79.56;100446.13;5089062;28;20092;-20
2021/10/17 06:18:39;;;;;;;13.23;9.13;;;;;;;13.49;79.96;100456.38;5089004;28;20032;-19
2021/10/17 06:21:07;;;;;;;14.25;9.10;;;;;;;13.29;81.45;100455.81;5070429;28;20577;-19
2021/10/17 06:23:32;;;;;;;;;;;;;;;13.68;80.04;100459.81;5089384;28;20028;-20
2021/10/17 06:25:58;;;;;;;17.00;11.73;;;;;;;13.84;78.49;100452.97;5088682;28;19931;-20
2021/10/17 06:28:23;;;;;;;18.92;11.30;;;;;;;13.89;77.68;100450.41;5089086;28;20032;-19
2021/10/17 06:30:49;;;;;;;16.77;11.35;;;;;;;13.92;77.79;100466.03;5088872;28;20043;-20
2021/10/17 06:33:14;;;;;;;13.90;9.43;;;;;;;13.62;78.88;100461.53;5088648;28;20476;-19
2021/10/17 06:35:40;;;;;;;9.93;6.25;;;;;;;13.59;78.17;100467.38;5088871;28;20028;-20
2021/10/17 06:38:05;;;;;;;9.38;6.65;;;;;;;13.57;78.54;100469.47;5088515;28;20547;-19
2021/10/17 06:40:30;;;;;;;8.30;5.47;;;;;;;13.66;78.69;100473.44;5088757;28;20043;-19
2021/10/17 06:42:57;;;;;;;10.95;7.13;;;;;;;13.75;79.82;100481.16;5088270;28;20041;-19
2021/10/17 06:45:22;;;;;;;11.18;6.82;;;;;;;13.69;79.43;100474.03;5088700;28;20168;-19
2021/10/17 06:47:48;;;;;;;11.93;7.55;;;;;;;13.87;79.36;100479.31;5088276;28;20065;-19
2021/10/17 06:50:14;;;;;;;17.33;13.43;;;;;;;13.57;80.27;100469.47;5088495;28;20479;-19
2021/10/17 06:52:39;;;;;;;19.92;14.65;;;;;;;13.62;80.09;100476.81;5088129;28;20032;-20
2021/10/17 06:55:05;;;;;;;24.33;16.40;;;;;;;13.81;79.83;100480.22;5089405;28;20063;-21
2021/10/17 06:57:31;;;;;;;23.60;16.65;;;;;;;13.63;79.98;100479.25;5092744;28;20036;-20
2021/10/17 06:59:56;;;;;;;20.65;15.40;;;;;;;13.61;79.63;100472.50;5092132;28;20032;-20
2021/10/17 07:02:22;;;;;;;19.35;13.23;;;;;;;13.98;78.02;100464.31;5092047;28;20028;-20
2021/10/17 07:04:47;;;;;;;8.07;4.90;;;;;;;13.79;75.79;100476.97;5073784;28;20484;-20
2021/10/17 07:07:12;;;;;;;6.57;4.22;;;;;;;13.56;76.22;100483.88;5092052;28;20399;-19
2021/10/17 07:09:38;;;;;;;7.30;4.38;;;;;;;13.35;77.53;100479.06;5091781;28;20062;-19
2021/10/17 07:12:04;;;;;;;8.68;4.63;;;;;;;13.48;76.24;100475.38;5092235;28;20024;-19
2021/10/17 07:14:29;;;;;;;8.00;4.90;;;;;;;13.62;76.32;100480.28;5091781;28;20039;-20
2021/10/17 07:16:55;;;;;;;7.05;3.63;;;;;;;13.71;75.82;100463.88;5091293;28;20057;-19
2021/10/17 07:19:20;;;;;;;8.05;4.05;;;;;;;13.80;75.74;100484.78;5091163;28;20023;-20
2021/10/17 07:21:45;;;;;;;6.45;3.95;;;;;;;13.69;76.12;100482.91;5090784;28;20043;-19
2021/10/17 07:24:11;;;;;;;8.77;4.18;;;;;;;14.01;75.63;100496.81;5091688;28;20036;-19
2021/10/17 07:26:36;;;;;;;6.70;4.30;;;;;;;14.25;74.51;100491.50;5091525;28;20442;-20
2021/10/17 07:29:02;;;;;;;6.15;4.05;;;;;;;14.31;74.18;100490.56;5091260;28;20043;-21
2021/10/17 07:31:27;;;;;;;8.95;4.30;;;;;;;14.32;73.28;100489.50;5091777;28;20035;-19
2021/10/17 07:33:53;;;;;;;5.97;4.18;;;;;;;14.30;73.77;100499.63;5092002;28;20032;-19
2021/10/17 07:36:18;;;;;;;7.95;4.20;;;;;;;14.12;74.41;100495.22;5091325;28;20082;-19
2021/10/17 07:38:43;;;;;;;8.10;4.43;;;;;;;14.03;73.73;100484.00;5091307;28;20592;-19
2021/10/17 07:41:09;;;;;;;9.90;5.15;;;;;;;14.30;74.20;100502.31;5071667;28;20032;-19
2021/10/17 07:43:34;;;;;;;8.13;4.90;;;;;;;14.65;72.60;100507.72;5091322;28;20036;-20
2021/10/17 07:46:02;;;;;;;7.15;4.22;;;;;;;14.67;71.97;100507.50;5091305;28;20081;-19
2021/10/17 07:48:29;;;;;;;6.88;4.35;;;;;;;14.48;72.00;100506.75;5091162;28;20160;-20
2021/10/17 07:50:54;;;;;;;9.15;5.07;;;;;;;14.79;71.48;100521.72;5090719;28;20128;-19
2021/10/17 07:53:20;;;;;;;9.68;4.60;;;;;;;14.77;71.71;100518.47;5090732;28;20491;-19
2021/10/17 07:55:45;;;;;;;6.30;3.95;;;;;;;14.61;70.57;100528.03;5091304;28;20043;-19
2021/10/17 07:58:10;;;;;;;7.85;4.53;;;;;;;14.67;71.06;100515.56;5090764;28;20028;-20
2021/10/17 08:00:37;;;;;;;7.97;4.68;;;;;;;14.52;71.23;100524.03;5091017;28;20031;-19
2021/10/17 08:03:02;;;;;;;6.72;4.88;;;;;;;14.55;71.94;100499.41;5090790;28;20024;-19
2021/10/17 08:05:28;;;;;;;6.60;4.18;;;;;;;14.59;70.61;100519.41;5090780;28;20514;-20
2021/10/17 08:07:54;;;;;;;6.38;4.28;;;;;;;14.64;70.49;100516.81;5072689;28;20036;-20
2021/10/17 08:10:20;;;;;;;7.30;3.95;;;;;;;14.42;70.63;100521.91;5072927;28;20118;-20
2021/10/17 11:30:33;;;;;;;2.50;1.50;;;;;;;18.64;56.40;100463.06;5064512;28;20055;-19
2021/10/17 11:33:04;;;;;;;2.65;1.27;;;;;;;18.87;53.98;100459.13;5078469;28;20123;-20
2021/10/17 11:35:34;;;;;;;2.08;1.45;;;;;;;18.72;56.42;100463.66;5088589;28;20448;-19
2021/10/17 11:38:00;;;;;;;4.88;2.75;;;;;;;19.54;51.23;100467.44;5077800;28;20086;-19
2021/10/17 11:40:26;;;;;;;5.40;1.50;;;;;;;19.72;53.62;100460.72;5070278;28;20035;-19
2021/10/17 11:42:58;;;;;;;2.25;1.40;;;;;;;20.85;49.15;100472.19;5073317;28;20639;-20
2021/10/17 11:45:28;;;;;;;3.60;1.52;;;;;;;21.52;46.73;100450.13;5090389;28;20134;-20
2021/10/17 11:48:01;;;;;;;5.78;1.92;;;;;;;20.54;49.39;100473.34;5091273;28;20028;-19
2021/10/17 11:50:28;;;;;;;6.10;3.33;;;;;;;19.84;51.55;100474.00;5073208;28;20036;-19
2021/10/17 11:53:07;;;;;;;1.70;1.13;;;;;;;18.93;54.35;100459.19;5089708;28;20778;-20
2021/10/17 11:55:47;;;;;;;4.15;2.72;;;;;;;18.95;55.09;100462.44;5052575;28;20777;-19
2021/10/17 11:58:23;;;;;;;9.35;4.20;;;;;;;19.15;54.79;100467.91;5070385;28;20533;-20
2021/10/17 12:00:53;;;;;;;8.00;4.70;;;;;;;18.49;55.48;100471.09;5052912;28;20035;-20
2021/10/17 12:03:19;;;;;;;4.95;2.72;;;;;;;18.21;56.83;100464.97;5070892;28;20040;-20
2021/10/17 12:05:45;;;;;;;4.50;2.67;;;;;;;17.98;57.05;100463.47;5070719;28;20024;-20
2021/10/17 12:08:23;;;;;;;2.55;1.65;;;;;;;18.09;55.53;100455.47;5070699;28;20055;-19
2021/10/17 12:11:05;;;;;;;5.20;1.63;;;;;;;18.38;56.08;100454.00;5070542;28;20039;-19
2021/10/17 12:13:45;;;;;;;1.02;0.90;;;;;;;17.43;56.49;100453.81;5070402;28;20115;-20
2021/10/17 12:16:14;;;;;;;1.73;0.90;;;;;;;16.98;58.46;100457.59;5070533;28;20033;-19
2021/10/17 12:18:51;;;;;;;1.20;1.10;;;;;;;17.08;60.00;100452.38;5070130;28;20055;-20
2021/10/17 12:21:18;;;;;;;2.47;1.27;;;;;;;17.06;60.38;100459.84;5068797;28;20062;-20
2021/10/17 12:23:45;;;;;;;5.35;1.42;;;;;;;17.18;60.43;100451.63;5070181;28;20029;-20
2021/10/17 12:26:14;;;;;;;4.65;2.20;;;;;;;16.97;61.23;100461.38;5070236;28;20483;-21
2021/10/17 12:28:40;;;;;;;4.85;2.45;;;;;;;16.77;61.74;100461.91;5058619;28;20039;-19
2021/10/17 12:31:05;;;;;;;8.75;4.90;;;;;;;16.56;63.45;100460.84;5086891;28;20052;-20
2021/10/17 12:33:35;;;;;;;11.30;6.00;;;;;;;16.67;63.44;100454.50;5090275;28;20035;-20
2021/10/17 12:36:01;;;;;;;4.65;2.75;;;;;;;16.43;62.67;100457.44;5088574;28;20024;-20
2021/10/17 12:38:34;;;;;;;7.75;4.93;;;;;;;16.68;62.96;100461.53;5082611;28;20050;-20
2021/10/17 12:41:04;;;;;;;6.22;3.35;;;;;;;16.89;63.51;100464.53;5052117;28;20040;-19
2021/10/17 12:43:37;;;;;;;27.75;13.90;;;;;;;16.76;62.79;100463.00;5066819;28;20119;-20
2021/10/17 12:46:16;;;;;;;16.63;8.55;;;;;;;16.54;62.94;100453.00;5066639;28;20089;-20
2021/10/17 12:48:43;;;;;;;16.85;9.63;;;;;;;16.37;63.18;100466.50;5062690;28;20036;-19
2021/10/17 12:51:31;;;;;;;11.15;5.93;;;;;;;16.68;64.22;100473.13;5083049;28;20032;-20
2021/10/17 12:54:29;;;;;;;29.10;16.08;;;;;;;16.93;62.24;100476.41;5084969;28;20032;-20
2021/10/17 12:56:59;;;;;;;18.27;9.40;;;;;;;17.07;61.37;100466.88;5089176;28;20032;-19
2021/10/17 12:59:36;;;;;;;7.00;3.55;;;;;;;16.62;61.29;100487.56;5071821;28;20035;-20
2021/10/17 13:02:15;;;;;;;3.08;1.60;;;;;;;16.45;62.83;100487.63;5089938;28;20043;-21
2021/10/17 13:04:54;;;;;;;2.42;1.20;;;;;;;16.48;62.74;100489.81;5054319;28;20488;-21
2021/10/17 13:07:33;;;;;;;3.15;1.92;;;;;;;16.73;62.45;100493.09;5069834;28;20032;-20
2021/10/17 13:09:59;;;;;;;3.45;1.85;;;;;;;16.57;61.50;100481.31;5069412;28;20031;-20
2021/10/17 13:12:30;;;;;;;1.98;1.40;;;;;;;16.60;62.16;100478.94;5069237;28;20032;-20
2021/10/17 13:15:00;;;;;;;1.80;1.33;;;;;;;16.36;62.02;100482.91;5073979;28;20146;-20
2021/10/17 13:17:26;;;;;;;1.63;1.38;;;;;;;16.59;63.04;100482.69;5052493;28;20029;-20
2021/10/17 13:19:52;;;;;;;2.80;1.50;;;;;;;16.36;62.09;100486.41;5088294;28;20028;-19
2021/10/17 13:22:18;;;;;;;4.97;2.30;;;;;;;16.28;63.26;100492.19;5071334;28;20024;-19
2021/10/17 13:24:43;;;;;;;3.75;2.28;;;;;;;15.98;63.62;100487.97;5089785;28;20097;-20
2021/10/17 13:27:09;;;;;;;3.42;2.60;;;;;;;16.00;62.80;100491.25;5088745;28;20028;-20
2021/10/17 13:29:36;;;;;;;2.88;2.03;;;;;;;15.99;63.13;100473.47;5058060;28;20056;-21
2021/10/17 13:32:03;;;;;;;11.87;8.50;;;;;;;15.87;63.19;100488.84;5068501;28;20052;-21
2021/10/17 13:34:28;;;;;;;14.73;6.93;;;;;;;15.73;63.32;100492.91;5071856;28;20028;-21
2021/10/17 13:36:54;;;;;;;4.35;3.25;;;;;;;15.76;65.15;100492.44;5085352;28;20035;-20
2021/10/17 13:39:19;;;;;;;6.95;4.50;;;;;;;15.98;63.97;100487.97;5088847;28;20059;-21
2021/10/17 13:41:44;;;;;;;20.85;18.98;;;;;;;15.96;64.54;100495.47;5088847;28;20035;-20
2021/10/17 13:44:10;;;;;;;7.03;6.32;;;;;;;15.62;64.69;100499.97;5088566;28;20093;-21
2021/10/17 13:46:36;;;;;;;6.00;3.30;;;;;;;15.44;66.25;100493.72;5071389;28;20047;-20
2021/10/17 13:49:03;;;;;;;6.68;3.83;;;;;;;15.32;66.45;100490.28;5050798;28;20119;-20
2021/10/17 13:51:29;;;;;;;3.88;2.20;;;;;;;15.40;65.76;100489.06;5070871;28;20393;-21
2021/10/17 13:53:54;;;;;;;13.25;6.53;;;;;;;15.37;66.39;100498.44;5073828;28;20032;-21
2021/10/17 13:56:20;;;;;;;6.15;3.38;;;;;;;15.88;66.03;100500.47;5081371;28;20445;-20
2021/10/17 13:58:45;;;;;;;5.95;3.55;;;;;;;15.70;65.18;100496.06;5069678;28;20028;-20
2021/10/17 14:01:11;;;;;;;6.10;3.47;;;;;;;16.68;66.87;100507.31;5089038;28;20107;-20
2021/10/17 14:03:36;;;;;;;7.30;3.80;;;;;;;17.34;69.18;100495.75;5088728;28;20055;-20
2021/10/17 14:06:02;;;;;;;8.57;3.90;;;;;;;17.24;65.45;100486.50;5088189;28;20035;-20
2021/10/17 14:08:27;;;;;;;6.35;3.03;;;;;;;17.07;62.34;100489.25;5088860;28;20036;-20
2021/10/17 14:10:54;;;;;;;7.65;4.20;;;;;;;17.82;61.11;100491.38;5088135;28;20381;-20
2021/10/17 14:13:21;;;;;;;13.40;5.88;;;;;;;17.47;59.92;100498.06;5062987;28;20025;-20
2021/10/17 14:15:46;;;;;;;8.30;4.60;;;;;;;17.20;60.29;100498.84;5050786;28;20071;-20
2021/10/17 14:18:12;;;;;;;6.75;3.95;;;;;;;17.12;62.65;100502.00;5066682;28;20064;-21
2021/10/17 14:20:38;;;;;;;8.88;4.47;;;;;;;17.18;66.82;100501.00;5074922;28;20039;-21
2021/10/17 14:23:04;;;;;;;9.80;5.50;;;;;;;17.73;62.58;100501.00;5070314;28;20024;-21
2021/10/17 14:25:29;;;;;;;8.95;4.88;;;;;;;17.64;65.62;100506.84;5087067;28;20055;-20
2021/10/17 14:27:55;;;;;;;10.40;5.68;;;;;;;18.37;60.20;100510.97;5088747;28;20036;-20
2021/10/17 14:30:20;;;;;;;15.02;9.15;;;;;;;18.36;62.81;100510.16;5070263;28;20061;-20
2021/10/17 14:32:46;;;;;;;17.65;9.77;;;;;;;18.48;63.42;100505.38;5068113;28;20551;-20
2021/10/17 14:35:11;;;;;;;15.10;8.32;;;;;;;18.52;64.60;100502.19;5075122;28;20048;-20
2021/10/17 14:37:37;;;;;;;10.93;5.95;;;;;;;20.46;58.97;100512.66;5050285;28;20178;-20
2021/10/17 14:40:02;;;;;;;10.80;4.13;;;;;;;19.90;57.39;100515.38;5050266;28;20480;-20